createdAt,value
2022-09-21T00:04:14.685Z,79.70
2022-09-21T00:12:20.581Z,80.80
2022-09-21T00:20:29.345Z,80.60
2022-09-21T00:28:34.669Z,80.70
2022-09-21T00:36:42.914Z,80.60
2022-09-21T00:44:48.354Z,80.70
2022-09-21T00:53:00.750Z,80.90
2022-09-21T01:01:06.188Z,80.80
2022-09-21T01:09:14.347Z,81.60
2022-09-21T01:17:27.637Z,80.80
2022-09-21T01:25:44.715Z,80.50
2022-09-21T01:33:57.255Z,80.40
2022-09-21T01:42:05.432Z,80.20
2022-09-21T01:50:16.805Z,80.20
2022-09-21T01:58:27.174Z,80.80
2022-09-21T02:06:35.362Z,80.60
2022-09-21T02:14:41.527Z,81.00
2022-09-21T02:23:00.377Z,80.80
2022-09-21T02:31:14.975Z,81.40
2022-09-21T02:39:31.993Z,81.00
2022-09-21T02:47:42.243Z,80.90
2022-09-21T02:55:54.343Z,81.20
2022-09-21T03:04:01.605Z,80.90
2022-09-21T03:12:10.075Z,80.60
2022-09-21T03:20:16.238Z,81.50
2022-09-21T03:28:24.832Z,81.70
2022-09-21T03:36:30.122Z,81.70
2022-09-21T03:44:37.987Z,81.80
2022-09-21T03:52:43.277Z,82.70
2022-09-21T04:00:51.173Z,83.80
2022-09-21T04:08:56.436Z,84.00
2022-09-21T04:17:04.376Z,84.00
2022-09-21T04:25:10.364Z,84.10
2022-09-21T04:33:18.253Z,83.80
2022-09-21T04:41:23.573Z,83.50
2022-09-21T04:49:31.520Z,83.30
2022-09-21T04:57:37.286Z,83.00
2022-09-21T05:05:50.221Z,82.80
2022-09-21T05:13:55.723Z,82.80
2022-09-21T05:22:03.616Z,82.40
2022-09-21T05:30:10.765Z,82.30
2022-09-21T05:38:21.470Z,81.60
2022-09-21T05:46:39.077Z,81.20
2022-09-21T05:54:59.646Z,80.30
2022-09-21T06:03:25.732Z,79.80
2022-09-21T06:11:33.679Z,79.40
2022-09-21T06:19:39.064Z,78.90
2022-09-21T06:27:47.170Z,77.90
2022-09-21T06:35:57.689Z,77.00
2022-09-21T06:44:06.237Z,77.00
2022-09-21T06:52:11.624Z,77.00
2022-09-21T07:00:19.979Z,76.80
2022-09-21T07:16:53.293Z,77.50
2022-09-21T07:24:58.810Z,75.90
2022-09-21T07:33:07.133Z,75.80
2022-09-21T07:41:13.745Z,75.60
2022-09-21T07:49:21.681Z,75.50
2022-09-21T07:57:39.496Z,75.80
2022-09-21T08:05:47.505Z,75.80
2022-09-21T08:13:55.859Z,77.10
2022-09-21T08:22:04.001Z,77.20
2022-09-21T08:30:13.492Z,76.10
2022-09-21T08:38:21.484Z,74.50
2022-09-21T08:46:30.229Z,72.50
2022-09-21T08:54:46.575Z,71.20
2022-09-21T09:03:07.334Z,72.40
2022-09-21T09:11:26.197Z,74.10
2022-09-21T09:19:42.403Z,73.20
2022-09-21T09:27:54.440Z,70.30
2022-09-21T09:36:05.458Z,70.20
2022-09-21T09:44:25.761Z,68.00
2022-09-21T09:52:31.170Z,65.80
2022-09-21T10:00:39.244Z,64.40
2022-09-21T10:08:47.454Z,66.20
2022-09-21T10:16:56.661Z,68.10
2022-09-21T10:25:06.257Z,68.80
2022-09-21T10:33:23.050Z,68.20
2022-09-21T10:41:28.749Z,65.30
2022-09-21T10:49:37.325Z,52.00
2022-09-21T10:57:45.574Z,40.30
2022-09-21T11:05:54.801Z,34.20
2022-09-21T11:14:06.268Z,30.00
2022-09-21T11:22:19.806Z,28.70
2022-09-21T11:30:25.722Z,28.90
2022-09-21T11:38:46.458Z,36.80
2022-09-21T11:47:02.232Z,43.60
2022-09-21T11:55:25.780Z,47.90
2022-09-21T12:03:47.451Z,48.00
2022-09-21T12:12:06.758Z,46.90
2022-09-21T12:20:20.178Z,50.00
2022-09-21T12:28:32.317Z,51.30
2022-09-21T12:36:41.858Z,52.60
2022-09-21T12:44:56.101Z,52.80
2022-09-21T12:53:02.013Z,58.30
2022-09-21T13:01:21.985Z,60.60
2022-09-21T13:09:28.692Z,61.40
2022-09-21T13:17:37.070Z,62.50
2022-09-21T13:25:42.327Z,61.60
2022-09-21T13:34:24.093Z,61.00
2022-09-21T13:42:48.983Z,63.20
2022-09-21T13:51:01.603Z,62.60
2022-09-21T13:59:06.898Z,62.60
2022-09-21T14:07:14.867Z,63.80
2022-09-21T14:15:40.447Z,65.20
2022-09-21T14:24:12.041Z,64.90
2022-09-21T14:32:23.643Z,63.60
2022-09-21T14:40:36.524Z,64.20
2022-09-21T14:48:50.369Z,65.40
2022-09-21T14:57:34.838Z,65.80
2022-09-21T15:05:43.409Z,66.90
2022-09-21T15:13:58.809Z,70.60
2022-09-21T15:22:21.004Z,71.90
2022-09-21T15:30:33.284Z,72.60
2022-09-21T15:38:39.538Z,72.90
2022-09-21T15:46:55.488Z,73.60
2022-09-21T15:55:03.274Z,74.00
2022-09-21T16:03:21.482Z,73.80
2022-09-21T16:11:38.410Z,74.90
2022-09-21T16:20:09.630Z,77.30
2022-09-21T16:28:37.179Z,79.20
2022-09-21T16:36:49.511Z,78.20
2022-09-21T16:44:55.084Z,77.90
2022-09-21T16:53:04.849Z,76.80
2022-09-21T17:01:13.328Z,76.90
2022-09-21T17:09:29.572Z,77.40
2022-09-21T17:17:35.541Z,78.60
2022-09-21T17:25:44.919Z,78.70
2022-09-21T17:33:51.517Z,79.40
2022-09-21T17:42:02.937Z,79.80
2022-09-21T17:50:23.195Z,80.20
2022-09-21T17:58:47.409Z,79.90
2022-09-21T18:06:53.638Z,79.10
2022-09-21T18:15:10.050Z,79.20
2022-09-21T18:23:25.168Z,79.80
2022-09-21T18:31:54.206Z,80.30
2022-09-21T18:40:08.669Z,81.40
2022-09-21T18:48:24.803Z,81.70
2022-09-21T18:56:36.082Z,82.30
2022-09-21T19:04:44.922Z,84.90
2022-09-21T19:13:06.360Z,86.50
2022-09-21T19:21:26.867Z,84.80
2022-09-21T19:29:44.763Z,84.50
2022-09-21T19:37:54.829Z,83.70
2022-09-21T19:46:13.412Z,83.60
2022-09-21T19:54:35.651Z,84.20
2022-09-21T20:02:45.677Z,83.90
2022-09-21T20:11:12.852Z,83.80
2022-09-21T20:19:37.635Z,83.60
2022-09-21T20:27:49.228Z,85.60
2022-09-21T20:35:55.548Z,86.50
2022-09-21T20:44:03.525Z,86.40
2022-09-21T20:52:09.579Z,86.40
2022-09-21T21:00:19.561Z,86.60
2022-09-21T21:08:25.177Z,86.20
2022-09-21T21:16:33.073Z,85.70
2022-09-21T21:24:44.402Z,85.60
2022-09-21T21:32:53.247Z,85.40
2022-09-21T21:40:58.964Z,85.70
2022-09-21T21:49:07.215Z,85.80
2022-09-21T21:57:14.203Z,86.40
2022-09-21T22:05:22.348Z,85.90
2022-09-21T22:13:32.991Z,85.60
2022-09-21T22:21:51.690Z,86.00
2022-09-21T22:29:58.538Z,85.90
2022-09-21T22:38:11.368Z,86.00
2022-09-21T22:46:17.364Z,87.30
2022-09-21T22:54:26.548Z,87.80
2022-09-21T23:02:31.874Z,87.90
2022-09-21T23:10:39.760Z,88.20
2022-09-21T23:18:47.013Z,87.80
2022-09-21T23:26:55.407Z,87.80
2022-09-21T23:35:00.688Z,88.40
2022-09-21T23:43:08.608Z,88.20
2022-09-21T23:51:14.571Z,88.20
2022-09-21T23:59:22.465Z,88.20
